Time;durP1;ratioP1;P1;durP2;ratioP2;P2;SDS_P1;SDS_P2;PMS_P1;PMS_P2;Temp;Humidity;BMP_temperature;BMP_pressure;BME280_temperature;BME280_humidity;BME280_pressure;Samples;Min_cycle;Max_cycle;Signal;HPM_P1;HPM_P2
2022/08/22 00:00:48;;;;;;;;;;;;;;;21.45;70.22;99058.81;4390671;32;35131;-81
2022/08/22 00:03:23;;;;;;;;;;;;;;;21.23;71.02;99057.44;4378032;32;33317;-82
2022/08/22 00:06:00;;;;;;;;;;;;;;;21.39;70.43;99052.25;4378222;32;33897;-82
2022/08/22 00:08:31;;;;;;;;;;;;;;;21.36;70.86;99062.44;4377292;32;34127;-81
2022/08/22 00:11:01;;;;;;;;;;;;;;;21.27;71.11;99060.62;4389688;32;33570;-81
2022/08/22 00:13:35;;;;;;;;;;;;;;;21.50;69.97;99059.22;4388265;32;32804;-81
2022/08/22 00:16:11;;;;;;;;;;;;;;;21.25;70.89;99054.59;4388650;32;34179;-83
2022/08/22 00:18:59;;;;;;;;;;;;;;;21.05;71.72;99060.09;4390585;32;33230;-83
2022/08/22 00:21:29;;;;;;;;;;;;;;;21.54;69.74;99063.28;4378430;32;33092;-83
2022/08/22 00:24:29;;;;;;;;;;;;;;;21.40;70.18;99064.66;4377878;32;33948;-83
2022/08/22 00:27:06;;;;;;;;;;;;;;;21.12;71.20;99061.16;4373619;32;33100;-83
2022/08/22 00:29:37;;;;;;;;;;;;;;;21.40;70.11;99058.44;4373957;32;34546;-83
2022/08/22 00:32:12;;;;;;;;;;;;;;;21.29;70.24;99056.81;4364674;32;33247;-83
2022/08/22 00:35:00;;;;;;;;;;;;;;;21.46;69.71;99052.47;4377947;32;32390;-84
2022/08/22 00:37:33;;;;;;;;;;;;;;;21.30;70.28;99063.03;4375707;32;33917;-84
2022/08/22 00:40:27;;;;;;;;;;;;;;;21.39;69.88;99057.59;4390518;32;32321;-83
2022/08/22 00:43:07;;;;;;;;;;;;;;;21.19;70.64;99064.94;4371038;32;33046;-84
2022/08/22 00:45:37;;;;;;;;;;;;;;;21.21;70.45;99060.25;4390483;32;34029;-84
2022/08/22 00:48:11;;;;;;;;;;;;;;;21.27;70.41;99064.19;4378048;32;33958;-83
2022/08/22 00:50:48;;;;;;;;;;;;;;;21.37;70.35;99067.69;4376755;32;33361;-84
2022/08/22 00:53:18;;;;;;;;;;;;;;;21.52;69.75;99064.44;4377882;32;32919;-84
2022/08/22 00:55:51;;;;;;;;;;;;;;;21.51;69.37;99071.66;4391478;32;33601;-84
2022/08/22 00:58:48;;;;;;;;;;;;;;;21.47;69.54;99070.28;4375568;32;33335;-83
2022/08/22 01:01:16;;;;;;;;;;;;;;;21.50;69.47;99071.78;4349221;32;34275;-83
2022/08/22 01:03:43;;;;;;;;;;;;;;;21.58;69.25;99067.34;4390153;32;34842;-83
2022/08/22 01:06:23;;;;;;;;;;;;;;;21.62;68.97;99057.97;4391322;32;33243;-83
2022/08/22 01:13:04;;;;;;;;;;;;;;;21.56;69.33;99061.28;4326331;33;35432;-83
2022/08/22 01:15:33;;;;;;;;;;;;;;;21.44;69.53;99059.84;4337344;32;33876;-83
2022/08/22 01:18:15;;;;;;;;;;;;;;;21.51;69.19;99058.22;4343944;32;33347;-83
2022/08/22 01:21:02;;;;;;;;;;;;;;;21.53;69.37;99060.75;4356951;32;32778;-83
2022/08/22 01:23:51;;;;;;;;;;;;;;;21.56;69.30;99057.78;4358070;32;34039;-83
2022/08/22 01:26:32;;;;;;;;;;;;;;;21.40;69.66;99058.44;4339537;32;34014;-83
2022/08/22 01:29:09;;;;;;;;;;;;;;;21.39;69.67;99062.97;4351874;32;33380;-84
2022/08/22 01:31:40;;;;;;;;;;;;;;;21.42;69.51;99062.69;4354770;32;34547;-83
2022/08/22 01:34:15;;;;;;;;;;;;;;;21.43;69.39;99052.78;4354207;32;34752;-84
2022/08/22 01:36:52;;;;;;;;;;;;;;;21.45;69.72;99051.62;4334921;32;32864;-83
2022/08/22 01:39:45;;;;;;;;;;;;;;;21.50;69.53;99051.16;4352663;32;33245;-83
2022/08/22 01:42:25;;;;;;;;;;;;;;;21.46;69.62;99052.47;4344564;32;33760;-83
2022/08/22 01:44:52;;;;;;;;;;;;;;;21.45;69.71;99061.50;4354438;32;33750;-83
2022/08/22 01:47:22;;;;;;;;;;;;;;;21.41;69.75;99063.69;4342021;32;33686;-83
2022/08/22 01:49:55;;;;;;;;;;;;;;;21.26;70.54;99059.78;4365961;32;34040;-83
2022/08/22 01:52:38;;;;;;;;;;;;;;;21.50;69.69;99059.22;4392083;32;33746;-83
2022/08/22 01:55:11;;;;;;;;;;;;;;;21.49;69.67;99054.84;4367225;32;33132;-83
2022/08/22 01:57:54;;;;;;;;;;;;;;;21.68;68.91;99053.81;4367092;32;32824;-83
2022/08/22 02:00:30;;;;;;;;;;;;;;;21.60;69.23;99049.25;4388706;32;32425;-83
2022/08/22 02:03:07;;;;;;;;;;;;;;;21.41;70.39;99055.63;4366312;32;32942;-83
2022/08/22 02:05:36;;;;;;;;;;;;;;;21.73;68.94;99052.34;4378833;32;34406;-83
2022/08/22 02:08:13;;;;;;;;;;;;;;;21.59;69.32;99058.28;4393539;32;34055;-83
2022/08/22 02:10:56;;;;;;;;;;;;;;;21.59;69.34;99055.59;4373312;32;32512;-83
2022/08/22 02:13:39;;;;;;;;;;;;;;;21.63;69.38;99048.91;4379381;32;33808;-82
2022/08/22 02:16:14;;;;;;;;;;;;;;;21.72;68.98;99047.97;4392579;32;33944;-82
2022/08/22 02:18:52;;;;;;;;;;;;;;;21.34;70.04;99048.34;4391409;32;34282;-83
2022/08/22 02:21:22;;;;;;;;;;;;;;;21.43;69.77;99047.41;4377909;32;33321;-81
2022/08/22 02:23:57;;;;;;;;;;;;;;;21.45;69.82;99048.09;4377521;32;33441;-82
2022/08/22 02:26:25;;;;;;;;;;;;;;;21.45;69.67;99050.78;4378697;32;34242;-81
2022/08/22 02:29:00;;;;;;;;;;;;;;;21.76;68.51;99039.63;4379224;32;34281;-81
2022/08/22 02:31:35;;;;;;;;;;;;;;;21.48;69.60;99043.25;4391677;32;33153;-81
2022/08/22 02:34:14;;;;;;;;;;;;;;;21.62;69.25;99036.50;4377160;32;33966;-83
2022/08/22 02:36:46;;;;;;;;;;;;;;;21.65;69.03;99041.56;4377775;32;35137;-82
2022/08/22 02:39:34;;;;;;;;;;;;;;;21.77;68.63;99038.63;4379331;32;35386;-82
2022/08/22 02:42:07;;;;;;;;;;;;;;;21.79;68.55;99040.16;4377915;32;34321;-82
2022/08/22 02:44:36;;;;;;;;;;;;;;;21.68;69.31;99035.84;4379161;32;34221;-82
2022/08/22 02:47:23;;;;;;;;;;;;;;;21.61;69.41;99031.28;4377462;32;34253;-82
2022/08/22 02:50:05;;;;;;;;;;;;;;;21.60;69.38;99030.44;4376270;32;33373;-82
2022/08/22 02:53:01;;;;;;;;;;;;;;;21.62;69.39;99038.34;4390642;32;32566;-82
2022/08/22 02:55:29;;;;;;;;;;;;;;;21.88;68.10;99041.03;4378262;32;34784;-82
2022/08/22 02:58:06;;;;;;;;;;;;;;;21.73;68.76;99035.38;4366616;32;34902;-82
2022/08/22 03:00:41;;;;;;;;;;;;;;;21.70;69.15;99028.50;4378860;32;34647;-82
2022/08/22 03:03:15;;;;;;;;;;;;;;;21.74;69.12;99031.69;4391319;32;31712;-82
2022/08/22 03:05:43;;;;;;;;;;;;;;;21.63;69.66;99027.44;4378707;32;34066;-83
2022/08/22 03:08:20;;;;;;;;;;;;;;;21.57;69.81;99027.22;4389868;32;33139;-82
2022/08/22 03:11:09;;;;;;;;;;;;;;;21.69;68.96;99029.47;4378494;32;33064;-82
2022/08/22 03:14:07;;;;;;;;;;;;;;;21.71;69.08;99034.72;4377538;32;32847;-82
2022/08/22 03:16:49;;;;;;;;;;;;;;;21.71;69.18;99035.56;4370661;32;34249;-83
2022/08/22 03:19:20;;;;;;;;;;;;;;;21.58;69.71;99037.78;4383715;32;34269;-83
2022/08/22 03:22:09;;;;;;;;;;;;;;;21.68;69.57;99043.06;4372230;32;34195;-82
2022/08/22 03:24:39;;;;;;;;;;;;;;;21.62;69.65;99039.19;4376510;32;31416;-82
2022/08/22 03:27:16;;;;;;;;;;;;;;;21.70;69.23;99044.62;4358739;32;32804;-82
2022/08/22 03:30:04;;;;;;;;;;;;;;;21.81;68.87;99045.38;4376561;32;32591;-83
2022/08/22 03:32:52;;;;;;;;;;;;;;;21.57;69.76;99049.53;4370713;32;33524;-82
2022/08/22 03:35:26;;;;;;;;;;;;;;;21.73;69.25;99049.66;4369618;32;33277;-84
2022/08/22 03:38:27;;;;;;;;;;;;;;;21.81;68.82;99046.19;4383077;32;34015;-84
2022/08/22 03:41:09;;;;;;;;;;;;;;;21.81;68.91;99050.75;4370773;32;33863;-84
2022/08/22 03:43:57;;;;;;;;;;;;;;;21.71;69.31;99054.38;4376365;32;35092;-84
2022/08/22 03:46:48;;;;;;;;;;;;;;;21.78;69.02;99051.03;4368398;32;33343;-85
2022/08/22 03:49:25;;;;;;;;;;;;;;;21.74;69.37;99053.19;4368885;32;32723;-84
2022/08/22 03:52:11;;;;;;;;;;;;;;;21.89;68.91;99051.66;4382682;32;33761;-84
2022/08/22 03:54:39;;;;;;;;;;;;;;;21.75;69.46;99056.75;4371523;32;34177;-84
2022/08/22 03:57:19;;;;;;;;;;;;;;;21.84;69.25;99053.97;4364401;32;32940;-84
2022/08/22 03:59:57;;;;;;;;;;;;;;;21.68;69.59;99062.72;4385990;32;33852;-84
2022/08/22 04:02:26;;;;;;;;;;;;;;;21.56;70.07;99063.16;4369943;32;33002;-84
2022/08/22 04:05:12;;;;;;;;;;;;;;;21.78;69.40;99056.41;4371402;32;34946;-84
2022/08/22 04:08:08;;;;;;;;;;;;;;;21.82;69.41;99057.78;4375571;32;34020;-84
2022/08/22 04:10:42;;;;;;;;;;;;;;;21.90;69.06;99063.25;4367678;32;33163;-84
2022/08/22 04:13:24;;;;;;;;;;;;;;;21.79;69.71;99068.84;4373937;32;33999;-84
2022/08/22 04:15:52;;;;;;;;;;;;;;;21.69;70.11;99069.78;4372378;32;34409;-84
2022/08/22 04:18:32;;;;;;;;;;;;;;;21.78;69.84;99067.16;4388806;32;32444;-84
2022/08/22 04:21:19;;;;;;;;;;;;;;;21.89;69.54;99062.41;4376427;32;33858;-84
2022/08/22 04:24:12;;;;;;;;;;;;;;;21.84;69.82;99064.72;4388250;32;33928;-85
2022/08/22 04:26:45;;;;;;;;;;;;;;;22.10;68.92;99070.09;4387621;32;35040;-85
2022/08/22 04:29:18;;;;;;;;;;;;;;;21.93;69.68;99065.59;4371803;32;34008;-83
2022/08/22 04:31:50;;;;;;;;;;;;;;;22.12;69.14;99078.84;4368614;32;33846;-83
2022/08/22 04:34:20;;;;;;;;;;;;;;;22.10;69.37;99071.94;4375115;32;33644;-82
2022/08/22 04:36:50;;;;;;;;;;;;;;;22.07;69.48;99073.06;4375521;32;33594;-82
2022/08/22 04:39:22;;;;;;;;;;;;;;;22.04;69.47;99078.78;4387063;32;32472;-82
2022/08/22 04:41:57;;;;;;;;;;;;;;;22.17;69.25;99079.25;4374291;32;34938;-83
2022/08/22 04:45:04;;;;;;;;;;;;;;;22.32;68.98;99082.19;4370271;32;33265;-83
2022/08/22 04:48:05;;;;;;;;;;;;;;;22.31;69.32;99074.25;4377078;32;35676;-83
2022/08/22 04:54:47;;;;;;;;;;;;;;;22.57;67.61;99080.47;4265109;33;34644;-82
2022/08/22 04:57:16;;;;;;;;;;;;;;;22.55;68.07;99081.63;4263376;33;32926;-82
2022/08/22 04:59:44;;;;;;;;;;;;;;;22.59;67.79;99083.81;4280918;33;33996;-82
2022/08/22 05:02:18;;;;;;;;;;;;;;;22.42;68.81;99087.47;4317236;33;35616;-82
2022/08/22 05:04:54;;;;;;;;;;;;;;;22.62;68.12;99094.28;4315690;33;33913;-81
2022/08/22 05:07:26;;;;;;;;;;;;;;;22.48;69.00;99086.81;4304678;33;33099;-82
2022/08/22 05:10:01;;;;;;;;;;;;;;;22.52;69.09;99088.19;4316198;33;34203;-82
2022/08/22 05:12:40;;;;;;;;;;;;;;;22.63;68.79;99087.88;4316614;33;33320;-82
2022/08/22 05:15:15;;;;;;;;;;;;;;;22.71;68.71;99087.94;4317019;33;33450;-82
2022/08/22 05:17:50;;;;;;;;;;;;;;;22.57;69.41;99091.22;4316248;33;33750;-83
2022/08/22 05:20:21;;;;;;;;;;;;;;;22.77;68.70;99085.59;4303908;33;32673;-83
2022/08/22 05:22:51;;;;;;;;;;;;;;;22.79;68.78;99086.25;4316787;33;33604;-83
2022/08/22 05:25:22;;;;;;;;;;;;;;;22.86;68.70;99090.00;4317086;33;33014;-82
2022/08/22 05:27:52;;;;;;;;;;;;;;;23.02;67.92;99089.22;4317069;33;34041;-83
2022/08/22 05:30:25;;;;;;;;;;;;;;;23.08;67.54;99094.81;4331169;32;34766;-85
2022/08/22 05:32:54;;;;;;;;;;;;;;;22.70;69.07;99101.56;4365365;32;33363;-85
2022/08/22 05:35:36;;;;;;;;;;;;;;;23.09;67.60;99099.19;4378063;32;33861;-85
2022/08/22 05:38:05;;;;;;;;;;;;;;;22.67;69.63;99102.72;4377767;32;33309;-85
2022/08/22 05:40:36;;;;;;;;;;;;;;;23.19;67.04;99102.59;4389864;32;34993;-85
2022/08/22 05:43:08;;;;;;;;;;;;;;;22.97;68.42;99108.56;4390044;32;32307;-85
2022/08/22 05:45:38;;;;;;;;;;;;;;;23.15;67.22;99111.16;4390019;32;34674;-85
2022/08/22 05:48:10;;;;;;;;;;;;;;;23.17;68.09;99109.16;4365877;32;33749;-85
2022/08/22 05:50:42;;;;;;;;;;;;;;;23.00;69.51;99102.88;4377919;32;34386;-84
2022/08/22 05:53:10;;;;;;;;;;;;;;;23.03;69.96;99107.09;4389528;32;34258;-85
2022/08/22 05:56:01;;;;;;;;;;;;;;;23.26;68.63;99113.53;4376977;32;34240;-84
2022/08/22 05:58:42;;;;;;;;;;;;;;;23.25;68.45;99122.63;4377456;32;34017;-85
2022/08/22 06:01:26;;;;;;;;;;;;;;;23.52;66.20;99118.81;4390007;32;33946;-84
2022/08/22 06:04:05;;;;;;;;;;;;;;;23.48;66.82;99128.25;4378555;32;33941;-83
2022/08/22 06:06:36;;;;;;;;;;;;;;;23.51;66.70;99127.91;4377406;32;32571;-83
2022/08/22 06:09:06;;;;;;;;;;;;;;;23.30;67.98;99125.66;4364963;32;32777;-83
2022/08/22 06:11:34;;;;;;;;;;;;;;;23.27;68.20;99119.78;4377282;32;34328;-83
2022/08/22 06:14:13;;;;;;;;;;;;;;;23.29;68.19;99128.53;4364633;32;32410;-83
2022/08/22 06:16:44;;;;;;;;;;;;;;;23.81;66.00;99122.91;4387534;32;34910;-83
2022/08/22 06:19:16;;;;;;;;;;;;;;;23.66;67.17;99120.06;4378736;32;33511;-83
2022/08/22 06:24:26;;;;;;;;;;;;;;;23.67;67.23;99129.81;4391088;32;33321;-83
2022/08/22 06:26:57;;;;;;;;;;;;;;;23.88;66.50;99118.53;4367329;32;33556;-83
2022/08/22 06:29:36;;;;;;;;;;;;;;;23.94;66.03;99134.03;4367265;32;33217;-83
2022/08/22 06:32:25;;;;;;;;;;;;;;;23.92;66.19;99130.66;4366639;32;34762;-83
2022/08/22 06:35:19;;;;;;;;;;;;;;;23.91;66.40;99131.69;4377354;32;33366;-83
2022/08/22 06:37:48;;;;;;;;;;;;;;;24.02;64.92;99134.03;4390586;32;32730;-85
2022/08/22 06:40:22;;;;;;;;;;;;;;;23.90;65.96;99132.69;4379381;32;34024;-85
2022/08/22 06:42:51;;;;;;;;;;;;;;;23.57;68.06;99142.56;4392313;32;33546;-84
2022/08/22 06:45:30;;;;;;;;;;;;;;;23.91;67.08;99137.06;4389139;32;34229;-86
2022/08/22 06:47:58;;;;;;;;;;;;;;;23.72;66.25;99141.78;4382121;32;32664;-86
2022/08/22 06:50:30;;;;;;;;;;;;;;;23.64;67.23;99144.47;4380394;32;33435;-86
2022/08/22 06:52:59;;;;;;;;;;;;;;;24.04;66.14;99134.72;4367402;32;33122;-87
2022/08/22 06:55:28;;;;;;;;;;;;;;;24.02;66.67;99136.72;4379312;32;32840;-86
2022/08/22 06:58:08;;;;;;;;;;;;;;;24.13;67.03;99127.47;4389996;32;34106;-85
2022/08/22 07:00:37;;;;;;;;;;;;;;;24.18;67.62;99136.72;4380376;32;33432;-86
2022/08/22 07:03:07;;;;;;;;;;;;;;;24.53;65.18;99137.34;4390602;32;32865;-86
2022/08/22 07:05:37;;;;;;;;;;;;;;;24.72;64.66;99133.44;4364898;32;33037;-85
2022/08/22 07:08:07;;;;;;;;;;;;;;;24.65;66.23;99138.69;4379419;32;33142;-86
2022/08/22 07:10:38;;;;;;;;;;;;;;;24.81;63.64;99131.53;4379717;32;32607;-86
2022/08/22 07:13:12;;;;;;;;;;;;;;;24.66;65.82;99134.13;4377339;32;35105;-87
2022/08/22 07:15:41;;;;;;;;;;;;;;;24.60;66.67;99132.97;4377226;32;33322;-87
2022/08/22 07:18:20;;;;;;;;;;;;;;;25.13;64.48;99128.75;4379970;32;34864;-87
2022/08/22 07:20:51;;;;;;;;;;;;;;;25.07;62.34;99134.84;4379032;32;34043;-84
2022/08/22 07:23:39;;;;;;;;;;;;;;;24.76;63.87;99140.16;4379235;32;35182;-87
2022/08/22 07:26:27;;;;;;;;;;;;;;;24.90;64.07;99141.31;4380151;32;32735;-85
2022/08/22 07:29:05;;;;;;;;;;;;;;;24.99;63.79;99149.19;4379473;32;34025;-87
2022/08/22 07:31:50;;;;;;;;;;;;;;;24.93;64.64;99141.81;4367971;32;34269;-87
2022/08/22 07:34:19;;;;;;;;;;;;;;;24.90;64.22;99141.31;4381396;32;34918;-93
2022/08/22 07:37:05;;;;;;;;;;;;;;;24.69;66.51;99139.19;4362618;32;32392;-92
2022/08/22 07:43:03;;;;;;;;;;;;;;;25.06;63.02;99143.09;4406652;32;33331;-91
2022/08/22 07:46:14;;;;;;;;;;;;;;;25.38;62.54;99144.81;4396672;32;33921;-93
2022/08/22 07:49:06;;;;;;;;;;;;;;;25.38;60.81;99145.66;4392106;32;32345;-84
2022/08/22 07:51:36;;;;;;;;;;;;;;;25.31;62.13;99151.97;4394631;32;34821;-84
2022/08/22 07:54:08;;;;;;;;;;;;;;;25.20;62.38;99155.87;4396376;32;34009;-84
2022/08/22 07:56:41;;;;;;;;;;;;;;;24.98;61.81;99157.47;4383158;32;34167;-84
2022/08/22 07:59:11;;;;;;;;;;;;;;;25.36;61.04;99154.97;4394968;32;34151;-84
2022/08/22 08:01:49;;;;;;;;;;;;;;;25.33;62.04;99152.63;4398451;32;34550;-84
2022/08/22 08:04:23;;;;;;;;;;;;;;;25.28;61.62;99153.97;4403886;32;34062;-84
2022/08/22 08:06:54;;;;;;;;;;;;;;;25.49;60.64;99147.97;4403890;32;33728;-84
2022/08/22 08:09:23;;;;;;;;;;;;;;;25.62;60.75;99155.47;4403922;32;32204;-84
2022/08/22 08:11:54;;;;;;;;;;;;;;;25.68;59.51;99152.03;4391380;32;34259;-84
2022/08/22 08:14:28;;;;;;;;;;;;;;;25.90;58.59;99144.16;4391116;32;33102;-84
2022/08/22 08:17:09;;;;;;;;;;;;;;;25.68;59.66;99149.34;4403210;32;34468;-84
2022/08/22 08:19:43;;;;;;;;;;;;;;;25.70;59.95;99157.28;4404056;32;34313;-84
2022/08/22 08:22:15;;;;;;;;;;;;;;;25.78;59.55;99152.69;4397087;32;33568;-84
2022/08/22 08:24:44;;;;;;;;;;;;;;;25.59;60.29;99149.56;4396532;32;34150;-84
2022/08/22 08:30:18;;;;;;;;;;;;;;;25.60;60.61;99154.81;4398114;32;33436;-84
2022/08/22 08:32:56;;;;;;;;;;;;;;;25.60;60.21;99152.12;4404655;32;32610;-84
2022/08/22 08:35:47;;;;;;;;;;;;;;;25.77;59.62;99156.41;4403816;32;34768;-85
2022/08/22 08:38:38;;;;;;;;;;;;;;;25.55;61.84;99157.22;4403693;32;34506;-84
2022/08/22 08:41:26;;;;;;;;;;;;;;;25.67;60.43;99149.53;4405836;32;33345;-84
2022/08/22 08:44:02;;;;;;;;;;;;;;;25.85;59.45;99151.97;4405781;32;33901;-84
2022/08/22 08:46:34;;;;;;;;;;;;;;;25.38;60.40;99148.34;4395518;32;35043;-84
2022/08/22 08:49:11;;;;;;;;;;;;;;;25.24;60.84;99155.34;4420873;32;33241;-84
2022/08/22 08:51:59;;;;;;;;;;;;;;;25.25;61.22;99150.78;4407323;32;32756;-84
2022/08/22 08:54:43;;;;;;;;;;;;;;;25.34;62.36;99146.19;4408488;32;34005;-84
2022/08/22 08:57:25;;;;;;;;;;;;;;;25.39;62.06;99158.12;4423682;32;33965;-84
2022/08/22 09:00:10;;;;;;;;;;;;;;;25.50;61.07;99156.91;4411158;32;34011;-84
2022/08/22 09:03:04;;;;;;;;;;;;;;;25.68;60.09;99162.84;4412800;32;33282;-84
2022/08/22 09:05:42;;;;;;;;;;;;;;;25.22;61.44;99160.09;4423649;32;33891;-84
2022/08/22 09:08:37;;;;;;;;;;;;;;;25.19;61.42;99162.31;4423726;32;33048;-84
2022/08/22 09:11:12;;;;;;;;;;;;;;;25.28;60.65;99162.09;4423698;32;34338;-84
2022/08/22 09:13:49;;;;;;;;;;;;;;;25.34;60.77;99159.69;4423647;32;32743;-84
2022/08/22 09:19:09;;;;;;;;;;;;;;;25.33;62.32;99166.97;4422065;32;33199;-84
2022/08/22 09:21:39;;;;;;;;;;;;;;;25.38;61.21;99161.88;4408580;32;33119;-84
2022/08/22 09:24:29;;;;;;;;;;;;;;;25.62;59.82;99160.03;4422840;32;32772;-84
2022/08/22 09:27:05;;;;;;;;;;;;;;;25.86;58.22;99157.19;4423605;32;33694;-84
2022/08/22 09:29:42;;;;;;;;;;;;;;;25.63;59.23;99159.84;4423187;32;33005;-84
2022/08/22 09:32:33;;;;;;;;;;;;;;;25.38;60.20;99161.03;4423591;32;33202;-84
2022/08/22 09:35:06;;;;;;;;;;;;;;;25.74;59.54;99156.75;4423612;32;33379;-84
2022/08/22 09:37:40;;;;;;;;;;;;;;;25.97;59.21;99164.91;4420900;32;33914;-84
2022/08/22 09:40:15;;;;;;;;;;;;;;;25.80;60.19;99155.22;4420654;32;34900;-84
2022/08/22 09:43:03;;;;;;;;;;;;;;;25.90;59.20;99150.41;4395659;32;33508;-84
2022/08/22 09:49:25;;;;;;;;;;;;;;;25.65;60.10;99157.81;4422916;32;33922;-84
2022/08/22 09:52:29;;;;;;;;;;;;;;;25.92;60.30;99155.63;4414140;32;33208;-84
2022/08/22 09:55:22;;;;;;;;;;;;;;;25.48;60.70;99162.47;4376961;32;34946;-84
2022/08/22 09:58:05;;;;;;;;;;;;;;;25.70;62.77;99160.81;4423471;32;34229;-84
2022/08/22 10:00:42;;;;;;;;;;;;;;;25.62;63.19;99158.16;4423294;32;34318;-84
2022/08/22 10:03:18;;;;;;;;;;;;;;;25.99;60.87;99164.69;4423219;32;34705;-84
2022/08/22 10:05:57;;;;;;;;;;;;;;;25.63;62.77;99159.84;4413428;32;34015;-84
2022/08/22 10:08:37;;;;;;;;;;;;;;;25.92;62.83;99159.19;4414429;32;33263;-84
2022/08/22 10:11:29;;;;;;;;;;;;;;;25.85;63.40;99169.03;4415371;32;34565;-84
2022/08/22 10:14:03;;;;;;;;;;;;;;;25.81;62.75;99158.75;4410288;32;32750;-83
2022/08/22 10:16:53;;;;;;;;;;;;;;;26.11;62.51;99162.41;4410098;32;33310;-84
2022/08/22 10:19:30;;;;;;;;;;;;;;;25.41;64.71;99166.09;4422806;32;32837;-84
2022/08/22 10:22:19;;;;;;;;;;;;;;;25.83;62.28;99164.81;4414159;32;33969;-84
2022/08/22 10:25:00;;;;;;;;;;;;;;;26.16;61.09;99166.25;4408394;32;33861;-84
2022/08/22 10:27:47;;;;;;;;;;;;;;;25.87;64.15;99166.12;4422978;32;34458;-84
2022/08/22 10:30:16;;;;;;;;;;;;;;;25.87;64.11;99161.56;4420655;32;33083;-84
2022/08/22 10:32:45;;;;;;;;;;;;;;;26.41;62.69;99163.31;4410866;32;34269;-84
2022/08/22 10:35:26;;;;;;;;;;;;;;;26.44;62.15;99168.38;4423196;32;34148;-84
2022/08/22 10:38:04;;;;;;;;;;;;;;;26.68;61.33;99165.44;4422274;32;33609;-84
2022/08/22 10:40:42;;;;;;;;;;;;;;;26.47;58.09;99159.91;4410108;32;33711;-84
2022/08/22 10:43:11;;;;;;;;;;;;;;;26.12;60.71;99164.94;4409314;32;32627;-84
2022/08/22 10:45:43;;;;;;;;;;;;;;;26.33;59.26;99168.81;4423085;32;35034;-84
2022/08/22 10:48:11;;;;;;;;;;;;;;;26.41;58.97;99163.31;4419722;32;34163;-84
2022/08/22 10:50:47;;;;;;;;;;;;;;;26.37;58.62;99170.13;4409001;32;32794;-84
2022/08/22 10:53:32;;;;;;;;;;;;;;;26.62;58.72;99162.63;4420064;32;34085;-84
2022/08/22 10:56:04;;;;;;;;;;;;;;;27.11;57.88;99162.94;4406757;32;33311;-84
2022/08/22 11:01:23;;;;;;;;;;;;;;;26.84;59.87;99160.88;4419521;32;33392;-84
2022/08/22 11:04:17;;;;;;;;;;;;;;;27.24;57.76;99164.97;4418528;32;34192;-84
2022/08/22 11:06:55;;;;;;;;;;;;;;;27.25;54.84;99156.66;4420402;32;33028;-84
2022/08/22 11:16:40;;;;;;;;;;;;;;;27.73;53.99;99153.47;4331727;33;34630;-84
2022/08/22 11:19:21;;;;;;;;;;;;;;;27.66;53.67;99156.06;4316689;33;33971;-84
2022/08/22 11:21:59;;;;;;;;;;;;;;;27.25;55.09;99162.06;4319186;33;35046;-84
2022/08/22 11:24:29;;;;;;;;;;;;;;;27.50;56.12;99153.59;4318974;33;33328;-84
2022/08/22 11:27:20;;;;;;;;;;;;;;;27.69;55.81;99155.69;4328415;33;33098;-84
2022/08/22 11:30:16;;;;;;;;;;;;;;;27.80;56.47;99154.34;4307615;33;32928;-84
2022/08/22 11:32:47;;;;;;;;;;;;;;;27.46;54.61;99152.31;4322403;33;34413;-84
2022/08/22 11:35:19;;;;;;;;;;;;;;;27.22;56.87;99153.47;4310873;33;32415;-84
2022/08/22 11:37:59;;;;;;;;;;;;;;;27.22;57.13;99156.19;4319167;33;33789;-84
2022/08/22 11:40:29;;;;;;;;;;;;;;;27.15;56.97;99153.38;4311375;33;33827;-84
2022/08/22 11:43:20;;;;;;;;;;;;;;;27.47;57.31;99154.81;4320924;33;34196;-84
2022/08/22 11:45:51;;;;;;;;;;;;;;;27.56;56.40;99153.66;4322044;33;33217;-84
2022/08/22 11:51:11;;;;;;;;;;;;;;;27.79;54.45;99148.09;4313826;33;33799;-92
2022/08/22 11:54:10;;;;;;;;;;;;;;;27.53;55.05;99151.31;4350771;32;34988;-84
2022/08/22 11:56:42;;;;;;;;;;;;;;;27.90;54.50;99148.59;4374290;32;32870;-84
2022/08/22 11:59:16;;;;;;;;;;;;;;;27.98;53.61;99141.19;4378983;32;34931;-84
2022/08/22 12:01:58;;;;;;;;;;;;;;;27.76;53.81;99144.94;4380304;32;35018;-84
2022/08/22 12:04:53;;;;;;;;;;;;;;;27.45;55.60;99147.91;4366361;32;33645;-84
2022/08/22 12:07:28;;;;;;;;;;;;;;;27.62;54.86;99143.91;4366743;32;33649;-84
2022/08/22 12:10:15;;;;;;;;;;;;;;;27.34;56.47;99132.13;4372098;32;33893;-84
2022/08/22 12:12:49;;;;;;;;;;;;;;;27.95;54.93;99140.72;4366639;32;33595;-84
2022/08/22 12:15:24;;;;;;;;;;;;;;;27.49;55.85;99144.62;4366353;32;34525;-84
2022/08/22 12:20:53;;;;;;;;;;;;;;;27.30;55.76;99135.25;4367788;32;33209;-84
2022/08/22 12:23:40;;;;;;;;;;;;;;;27.14;56.16;99135.44;4379542;32;34098;-84
2022/08/22 12:26:28;;;;;;;;;;;;;;;27.75;54.94;99138.66;4389897;32;34489;-84
2022/08/22 12:29:01;;;;;;;;;;;;;;;28.12;53.57;99131.28;4378693;32;32649;-84
2022/08/22 12:31:34;;;;;;;;;;;;;;;27.99;55.00;99125.72;4378314;32;34830;-84
2022/08/22 12:34:30;;;;;;;;;;;;;;;27.94;54.49;99128.19;4375334;32;34083;-84
2022/08/22 12:37:03;;;;;;;;;;;;;;;27.52;54.96;99136.09;4363760;32;33255;-84
2022/08/22 12:39:50;;;;;;;;;;;;;;;27.73;53.12;99138.03;4389276;32;32602;-84
2022/08/22 12:45:02;;;;;;;;;;;;;;;27.80;54.06;99136.19;4390298;32;33977;-84
2022/08/22 12:47:40;;;;;;;;;;;;;;;27.73;52.67;99126.34;4365810;32;33282;-84
2022/08/22 12:50:15;;;;;;;;;;;;;;;27.64;53.66;99124.75;4389284;32;33371;-84
2022/08/22 12:52:53;;;;;;;;;;;;;;;27.73;54.45;99138.03;4377547;32;32946;-84
2022/08/22 12:55:39;;;;;;;;;;;;;;;27.62;54.11;99140.37;4405887;32;34408;-84
2022/08/22 12:58:21;;;;;;;;;;;;;;;26.72;56.84;99139.66;4405696;32;35952;-84
2022/08/22 13:00:51;;;;;;;;;;;;;;;26.45;58.80;99138.44;4403617;32;32569;-84
2022/08/22 13:03:44;;;;;;;;;;;;;;;26.51;59.36;99148.53;4392527;32;33901;-84
2022/08/22 13:06:33;;;;;;;;;;;;;;;26.51;59.40;99147.69;4402116;32;34333;-85
2022/08/22 13:12:16;;;;;;;;;;;;;;;25.87;55.69;99139.09;4397952;32;34028;-84
2022/08/22 13:15:02;;;;;;;;;;;;;;;25.51;57.09;99145.91;4408151;32;34484;-85
2022/08/22 13:17:34;;;;;;;;;;;;;;;25.88;56.43;99152.47;4406769;32;34599;-84
2022/08/22 13:20:11;;;;;;;;;;;;;;;25.43;58.84;99155.94;4395527;32;34888;-85
2022/08/22 13:22:40;;;;;;;;;;;;;;;25.50;58.64;99157.75;4407794;32;32506;-85
2022/08/22 13:28:01;;;;;;;;;;;;;;;25.34;59.92;99154.28;4407922;32;33443;-85
2022/08/22 13:30:35;;;;;;;;;;;;;;;25.76;60.14;99154.72;4394633;32;33419;-86
2022/08/22 13:33:08;;;;;;;;;;;;;;;26.01;58.77;99154.53;4394849;32;34129;-85
2022/08/22 13:35:47;;;;;;;;;;;;;;;25.91;59.87;99159.34;4407328;32;34545;-87
2022/08/22 13:38:27;;;;;;;;;;;;;;;25.88;59.21;99154.31;4395118;32;34808;-85
2022/08/22 13:40:57;;;;;;;;;;;;;;;25.61;58.55;99161.91;4405609;32;34284;-86
2022/08/22 13:43:28;;;;;;;;;;;;;;;25.94;58.69;99165.25;4407164;32;33674;-85
2022/08/22 13:46:00;;;;;;;;;;;;;;;26.17;58.33;99162.53;4405917;32;32990;-86
2022/08/22 13:48:51;;;;;;;;;;;;;;;25.96;57.97;99162.34;4393334;32;33784;-85
2022/08/22 13:51:29;;;;;;;;;;;;;;;26.44;57.05;99162.97;4398774;32;32878;-85
2022/08/22 13:54:12;;;;;;;;;;;;;;;27.13;54.38;99162.75;4406891;32;33265;-85
2022/08/22 13:57:00;;;;;;;;;;;;;;;26.81;56.50;99171.03;4382029;32;34458;-85
2022/08/22 13:59:57;;;;;;;;;;;;;;;26.84;55.20;99174.41;4382450;32;33389;-85
2022/08/22 14:02:42;;;;;;;;;;;;;;;27.34;53.24;99175.50;4395522;32;34141;-85
2022/08/22 14:05:28;;;;;;;;;;;;;;;26.38;54.39;99174.50;4407724;32;33599;-85
2022/08/22 14:08:03;;;;;;;;;;;;;;;27.17;54.47;99172.19;4381915;32;33172;-85
2022/08/22 14:10:44;;;;;;;;;;;;;;;27.30;54.41;99175.91;4407853;32;34604;-85
2022/08/22 14:13:40;;;;;;;;;;;;;;;27.47;54.11;99170.25;4393673;32;34465;-86
2022/08/22 14:18:57;;;;;;;;;;;;;;;27.18;53.79;99165.72;4406654;32;34851;-85
2022/08/22 14:21:39;;;;;;;;;;;;;;;26.99;54.62;99169.81;4394684;32;34897;-86
2022/08/22 14:24:12;;;;;;;;;;;;;;;27.24;54.64;99173.94;4381103;32;34169;-85
2022/08/22 14:26:48;;;;;;;;;;;;;;;27.02;54.63;99173.00;4393323;32;33036;-85
2022/08/22 14:29:20;;;;;;;;;;;;;;;27.05;54.96;99169.06;4385129;32;33386;-85
2022/08/22 14:31:59;;;;;;;;;;;;;;;27.25;54.60;99178.34;4394737;32;33512;-85
2022/08/22 14:34:28;;;;;;;;;;;;;;;27.01;54.69;99167.75;4395449;32;34333;-85